Dati Storici

Data ora Umidita' aria (%) Temperatura aria (°C) Rad globale (W/m²) Gonioanemometro (°) Tacoanemometro (m/s) Pioggia (mm)
04-11-2012 10:10 95.1 % 11.771 33.121 2.5 2.734 0
04-11-2012 10:00 94.6 % 11.679 55.111 37.596 1.262 0
04-11-2012 09:50 94.2 % 11.617 46.753 16.07 1.684 0
04-11-2012 09:40 93.8 % 11.569 34.687 40.887 2.8 0
04-11-2012 09:30 93.7 % 11.568 44.653 1.117 1.509 0
04-11-2012 09:20 93.8 % 11.512 34.19 32.251 1.621 0
04-11-2012 09:10 93.8 % 11.445 33.019 49.083 1.342 0
04-11-2012 09:00 93.7 % 11.382 32.777 26.161 1.985 0
04-11-2012 08:50 93.5 % 11.329 31.503 25.066 2.966 0
04-11-2012 08:40 93.6 % 11.317 26.631 7.181 1.35 0
04-11-2012 08:30 93.8 % 11.24 16.551 9.996 3.265 0
04-11-2012 08:20 93.9 % 11.123 12.629 5.692 1.867 0
04-11-2012 08:10 94 % 11.07 9.035 350.438 1.893 0
04-11-2012 08:00 94 % 11.046 5.116 18.296 1.6 0
04-11-2012 07:50 94.2 % 11 3.936 0.529 2.102 0
04-11-2012 07:40 94.2 % 10.94 3.449 1.145 2.496 0
04-11-2012 07:30 94.2 % 10.912 3.256 23.996 1.949 0
04-11-2012 07:20 94.1 % 10.915 3.346 35.171 1.428 0
04-11-2012 07:10 94.1 % 10.908 3.213 47.061 0.763 0
04-11-2012 07:00 94.1 % 10.913 3.213 347.892 1.354 0

I dati sono presentati in modo automatico a scopo informativo. In seguito a verifica i dati possono subire modifiche o essere invalidati e non riportati negli archivi definitivi.